createdAt,value
2023-05-03T00:02:05.365Z,7.30
2023-05-03T00:04:32.268Z,7.30
2023-05-03T00:06:59.127Z,8.02
2023-05-03T00:09:26.092Z,7.88
2023-05-03T00:11:53.653Z,8.35
2023-05-03T00:14:20.709Z,7.95
2023-05-03T00:16:47.633Z,8.23
2023-05-03T00:19:24.357Z,8.23
2023-05-03T00:21:57.906Z,8.00
2023-05-03T00:24:24.801Z,7.45
2023-05-03T00:26:51.691Z,6.93
2023-05-03T00:29:21.243Z,7.35
2023-05-03T00:31:48.123Z,7.43
2023-05-03T00:34:15.059Z,8.05
2023-05-03T00:36:42.091Z,6.78
2023-05-03T00:39:09.874Z,7.90
2023-05-03T00:41:36.943Z,7.35
2023-05-03T00:44:03.926Z,6.68
2023-05-03T00:46:30.861Z,7.32
2023-05-03T00:48:57.830Z,7.13
2023-05-03T00:51:24.735Z,7.03
2023-05-03T00:53:51.819Z,7.20
2023-05-03T00:56:21.076Z,7.05
2023-05-03T00:58:47.983Z,7.18
2023-05-03T01:01:15.541Z,7.07
2023-05-03T01:03:43.178Z,7.57
2023-05-03T01:06:38.199Z,7.57
2023-05-03T01:09:17.571Z,7.15
2023-05-03T01:11:55.291Z,7.80
2023-05-03T01:14:43.890Z,7.45
2023-05-03T01:17:14.582Z,7.13
2023-05-03T01:19:45.983Z,7.32
2023-05-03T01:22:30.829Z,7.18
2023-05-03T01:25:08.016Z,7.20
2023-05-03T01:27:35.359Z,7.07
2023-05-03T01:30:09.491Z,7.60
2023-05-03T01:32:51.467Z,7.30
2023-05-03T01:35:27.669Z,7.68
2023-05-03T01:37:56.062Z,6.93
2023-05-03T01:40:23.255Z,7.55
2023-05-03T01:42:50.939Z,6.90
2023-05-03T01:45:18.035Z,7.65
2023-05-03T01:47:44.998Z,7.05
2023-05-03T01:50:12.025Z,7.50
2023-05-03T01:52:38.936Z,8.38
2023-05-03T01:55:06.450Z,8.65
2023-05-03T01:57:33.310Z,8.20
2023-05-03T02:00:00.373Z,8.57
2023-05-03T02:02:27.371Z,7.78
2023-05-03T02:04:54.593Z,7.68
2023-05-03T02:07:21.765Z,7.85
2023-05-03T02:09:48.865Z,7.80
2023-05-03T02:12:17.339Z,7.32
2023-05-03T02:14:44.267Z,8.32
2023-05-03T02:17:11.632Z,9.27
2023-05-03T02:19:38.566Z,7.82
2023-05-03T02:22:06.920Z,7.63
2023-05-03T02:24:36.453Z,6.80
2023-05-03T02:27:07.000Z,8.63
2023-05-03T02:29:34.122Z,7.60
2023-05-03T02:32:05.580Z,8.63
2023-05-03T02:34:33.080Z,8.15
2023-05-03T02:37:00.308Z,7.93
2023-05-03T02:39:27.612Z,7.13
2023-05-03T02:41:54.880Z,7.00
2023-05-03T02:44:21.804Z,7.40
2023-05-03T02:46:50.305Z,7.03
2023-05-03T02:49:17.778Z,6.65
2023-05-03T02:51:44.762Z,7.45
2023-05-03T02:54:11.923Z,6.80
2023-05-03T02:56:39.356Z,6.70
2023-05-03T02:59:06.303Z,6.68
2023-05-03T03:01:34.113Z,7.40
2023-05-03T03:04:01.593Z,6.93
2023-05-03T03:06:31.435Z,6.28
2023-05-03T03:08:59.378Z,6.72
2023-05-03T03:11:26.889Z,6.68
2023-05-03T03:13:53.834Z,7.25
2023-05-03T03:16:25.889Z,6.82
2023-05-03T03:18:53.167Z,6.10
2023-05-03T03:21:20.028Z,6.32
2023-05-03T03:23:46.863Z,6.50
2023-05-03T03:26:13.753Z,5.95
2023-05-03T03:28:41.048Z,6.47
2023-05-03T03:31:11.006Z,6.63
2023-05-03T03:33:39.087Z,8.15
2023-05-03T03:36:19.859Z,6.65
2023-05-03T03:38:49.348Z,7.32
2023-05-03T03:41:16.157Z,7.32
2023-05-03T03:43:44.260Z,6.85
2023-05-03T03:46:17.031Z,7.30
2023-05-03T03:48:44.480Z,7.45
2023-05-03T03:51:11.677Z,7.43
2023-05-03T03:53:44.360Z,7.25
2023-05-03T03:56:11.878Z,7.28
2023-05-03T03:58:38.924Z,7.82
2023-05-03T04:01:08.190Z,7.00
2023-05-03T04:03:35.193Z,7.55
2023-05-03T04:06:02.298Z,7.38
2023-05-03T04:08:29.686Z,7.72
2023-05-03T04:10:56.938Z,7.75
2023-05-03T04:13:24.981Z,7.63
2023-05-03T04:15:56.325Z,7.78
2023-05-03T04:18:23.954Z,7.72
2023-05-03T04:20:52.628Z,8.32
2023-05-03T04:23:20.951Z,8.40
2023-05-03T04:25:48.958Z,7.53
2023-05-03T04:28:18.249Z,7.30
2023-05-03T04:30:48.423Z,8.30
2023-05-03T04:33:22.200Z,9.18
2023-05-03T04:35:51.310Z,9.05
2023-05-03T04:38:20.115Z,8.80
2023-05-03T04:40:47.302Z,8.18
2023-05-03T04:43:14.250Z,10.55
2023-05-03T04:45:44.851Z,9.77
2023-05-03T04:48:18.183Z,8.35
2023-05-03T04:50:45.532Z,8.23
2023-05-03T04:53:14.858Z,10.25
2023-05-03T04:55:45.033Z,9.88
2023-05-03T04:58:11.887Z,8.27
2023-05-03T05:00:41.842Z,9.80
2023-05-03T05:03:15.146Z,7.47
2023-05-03T05:05:42.121Z,9.43
2023-05-03T05:08:11.233Z,9.07
2023-05-03T05:10:43.483Z,7.45
2023-05-03T05:13:14.721Z,7.90
2023-05-03T05:15:41.940Z,7.65
2023-05-03T05:18:10.030Z,7.55
2023-05-03T05:20:38.545Z,7.85
2023-05-03T05:23:06.971Z,8.63
2023-05-03T05:25:33.902Z,8.02
2023-05-03T05:28:02.575Z,8.98
2023-05-03T05:30:30.360Z,8.07
2023-05-03T05:32:57.539Z,7.97
2023-05-03T05:35:24.491Z,8.73
2023-05-03T05:37:51.588Z,9.60
2023-05-03T05:40:19.245Z,9.20
2023-05-03T05:42:51.471Z,10.32
2023-05-03T05:45:20.025Z,10.57
2023-05-03T05:47:47.327Z,12.25
2023-05-03T05:50:18.331Z,11.27
2023-05-03T05:52:51.663Z,11.80
2023-05-03T05:55:19.218Z,12.10
2023-05-03T05:57:46.447Z,13.68
2023-05-03T06:00:17.527Z,11.63
2023-05-03T06:02:45.441Z,11.48
2023-05-03T06:05:16.955Z,13.45
2023-05-03T06:07:44.025Z,12.38
2023-05-03T06:10:11.243Z,14.52
2023-05-03T06:12:40.373Z,15.57
2023-05-03T06:15:13.386Z,16.95
2023-05-03T06:17:40.645Z,18.23
2023-05-03T06:20:12.097Z,18.23
2023-05-03T06:22:40.824Z,16.23
2023-05-03T06:25:09.793Z,18.20
2023-05-03T06:27:38.475Z,18.45
2023-05-03T06:30:07.533Z,16.83
2023-05-03T06:32:35.260Z,16.67
2023-05-03T06:35:02.390Z,21.10
2023-05-03T06:37:30.159Z,20.50
2023-05-03T06:39:57.318Z,21.67
2023-05-03T06:42:24.220Z,19.45
2023-05-03T06:45:03.955Z,18.70
2023-05-03T06:47:31.161Z,20.13
2023-05-03T06:49:58.639Z,19.13
2023-05-03T06:52:25.598Z,17.75
2023-05-03T06:54:53.625Z,17.10
2023-05-03T06:57:21.665Z,21.08
2023-05-03T06:59:48.715Z,19.17
2023-05-03T07:02:16.436Z,18.90
2023-05-03T07:04:43.322Z,17.63
2023-05-03T07:07:10.300Z,19.58
2023-05-03T07:09:43.273Z,19.38
2023-05-03T07:12:11.719Z,19.88
2023-05-03T07:14:41.572Z,20.05
2023-05-03T07:17:09.178Z,21.50
2023-05-03T07:19:37.704Z,20.30
2023-05-03T07:22:05.399Z,19.85
2023-05-03T07:24:32.628Z,22.15
2023-05-03T07:26:59.620Z,19.92
2023-05-03T07:29:27.472Z,20.60
2023-05-03T07:31:54.775Z,21.70
2023-05-03T07:34:22.469Z,19.65
2023-05-03T07:36:49.790Z,19.75
2023-05-03T07:39:17.611Z,20.92
2023-05-03T07:41:44.588Z,20.20
2023-05-03T07:44:11.873Z,18.77
2023-05-03T07:46:39.338Z,19.63
2023-05-03T07:49:06.404Z,19.65
2023-05-03T07:51:37.078Z,19.30
2023-05-03T07:54:04.366Z,20.42
2023-05-03T07:56:31.529Z,22.65
2023-05-03T07:59:08.470Z,19.48
2023-05-03T08:01:36.878Z,20.92
2023-05-03T08:04:04.658Z,21.48
2023-05-03T08:06:32.743Z,19.30
2023-05-03T08:08:59.739Z,19.85
2023-05-03T08:11:29.726Z,20.65
2023-05-03T08:13:56.801Z,20.20
2023-05-03T08:16:24.415Z,22.17
2023-05-03T08:18:51.782Z,20.08
2023-05-03T08:21:19.508Z,18.40
2023-05-03T08:23:46.482Z,18.40
2023-05-03T08:26:14.719Z,21.05
2023-05-03T08:28:42.415Z,18.52
2023-05-03T08:31:09.734Z,18.15
2023-05-03T08:33:37.316Z,18.25
2023-05-03T08:36:04.406Z,15.77
2023-05-03T08:38:31.463Z,15.85
2023-05-03T08:40:59.032Z,14.57
2023-05-03T08:43:27.852Z,15.18
2023-05-03T08:45:55.404Z,14.55
2023-05-03T08:48:24.308Z,15.00
2023-05-03T08:50:51.833Z,16.20
2023-05-03T08:53:19.155Z,13.32
2023-05-03T08:55:46.758Z,16.63
2023-05-03T08:58:14.512Z,14.02
2023-05-03T09:00:45.478Z,15.25
2023-05-03T09:03:13.260Z,16.48
2023-05-03T09:05:41.527Z,15.95
2023-05-03T09:08:10.020Z,15.27
2023-05-03T09:10:41.886Z,15.02
2023-05-03T09:13:09.753Z,15.75
2023-05-03T09:15:37.474Z,14.77
2023-05-03T09:18:30.701Z,15.00
2023-05-03T09:21:03.622Z,13.82
2023-05-03T09:23:32.229Z,14.45
2023-05-03T09:26:00.246Z,13.77
2023-05-03T09:28:27.594Z,12.05
2023-05-03T09:31:08.027Z,13.35
2023-05-03T09:33:36.302Z,14.00
2023-05-03T09:36:05.870Z,12.85
2023-05-03T09:38:35.147Z,12.63
2023-05-03T09:41:03.690Z,13.35
2023-05-03T09:43:32.330Z,12.80
2023-05-03T09:46:12.329Z,10.65
2023-05-03T09:48:48.181Z,13.68
2023-05-03T09:51:19.950Z,13.10
2023-05-03T09:53:48.817Z,13.40
2023-05-03T09:56:16.468Z,13.90
2023-05-03T09:58:46.994Z,13.13
2023-05-03T10:01:15.235Z,13.18
2023-05-03T10:03:51.100Z,13.95
2023-05-03T10:06:30.184Z,13.48
2023-05-03T10:09:29.149Z,12.73
2023-05-03T10:11:59.398Z,12.02
2023-05-03T10:14:27.079Z,13.77
2023-05-03T10:17:01.271Z,13.65
2023-05-03T10:19:37.595Z,13.70
2023-05-03T10:22:08.765Z,13.45
2023-05-03T10:24:37.051Z,14.52
2023-05-03T10:27:07.685Z,13.98
2023-05-03T10:29:34.602Z,13.40
2023-05-03T10:32:02.380Z,13.27
2023-05-03T10:34:33.647Z,13.07
2023-05-03T10:37:08.213Z,13.30
2023-05-03T10:39:35.367Z,13.55
2023-05-03T10:42:04.173Z,12.32
2023-05-03T10:44:50.140Z,12.10
2023-05-03T10:47:18.185Z,11.23
2023-05-03T10:49:46.212Z,11.55
2023-05-03T10:52:36.218Z,12.38
2023-05-03T10:55:04.704Z,12.45
2023-05-03T10:57:33.300Z,13.25
2023-05-03T11:00:03.031Z,10.75
2023-05-03T11:02:32.743Z,10.98
2023-05-03T11:05:01.883Z,11.73
2023-05-03T11:07:30.105Z,13.35
2023-05-03T11:09:57.275Z,13.35
2023-05-03T11:12:24.370Z,12.18
2023-05-03T11:14:51.492Z,11.57
2023-05-03T11:17:18.946Z,12.27
2023-05-03T11:19:46.921Z,11.20
2023-05-03T11:22:14.673Z,11.73
2023-05-03T11:24:42.649Z,11.38
2023-05-03T11:27:14.214Z,12.00
2023-05-03T11:29:41.934Z,11.60
2023-05-03T11:32:10.555Z,10.32
2023-05-03T11:34:38.769Z,9.32
2023-05-03T11:37:07.844Z,10.07
2023-05-03T11:39:36.299Z,10.63
2023-05-03T11:42:04.732Z,9.20
2023-05-03T11:44:31.725Z,11.13
2023-05-03T11:46:59.746Z,9.18
2023-05-03T11:49:27.507Z,8.60
2023-05-03T11:51:55.149Z,9.68
2023-05-03T11:54:26.385Z,10.30
2023-05-03T11:56:59.164Z,9.05
2023-05-03T11:59:37.697Z,9.13
2023-05-03T12:02:05.619Z,8.77
2023-05-03T12:04:34.351Z,10.73
2023-05-03T12:07:04.666Z,9.65
2023-05-03T12:09:33.148Z,10.02
2023-05-03T12:12:02.521Z,9.57
2023-05-03T12:14:50.696Z,9.52
2023-05-03T12:17:38.466Z,9.73
2023-05-03T12:22:57.914Z,8.77
2023-05-03T12:25:28.055Z,9.43
2023-05-03T12:28:18.005Z,8.70
2023-05-03T12:30:46.757Z,8.20
2023-05-03T12:33:17.064Z,8.32
2023-05-03T12:35:48.129Z,9.13
2023-05-03T12:38:18.086Z,7.10
2023-05-03T12:40:48.007Z,7.50
2023-05-03T12:43:16.918Z,8.40
2023-05-03T12:45:51.137Z,8.27
2023-05-03T12:48:26.116Z,7.32
2023-05-03T12:51:13.702Z,7.80
2023-05-03T12:53:47.192Z,7.80
2023-05-03T12:56:17.206Z,7.53
2023-05-03T12:59:11.398Z,7.03
2023-05-03T13:02:17.017Z,6.90
2023-05-03T13:04:56.092Z,6.20
2023-05-03T13:07:26.152Z,6.00
2023-05-03T13:12:27.893Z,6.60
2023-05-03T13:14:57.037Z,6.22
2023-05-03T13:17:25.530Z,5.68
2023-05-03T13:19:54.846Z,5.65
2023-05-03T13:22:24.468Z,5.30
2023-05-03T13:24:54.242Z,4.88
2023-05-03T13:27:29.516Z,5.60
2023-05-03T13:29:59.015Z,4.20
2023-05-03T13:32:28.945Z,5.07
2023-05-03T13:34:57.566Z,5.45
2023-05-03T13:37:27.291Z,4.95
2023-05-03T13:39:57.815Z,4.68
2023-05-03T13:42:28.613Z,3.65
2023-05-03T13:44:55.719Z,4.00
2023-05-03T13:47:23.219Z,4.07
2023-05-03T13:49:50.089Z,4.15
2023-05-03T13:52:17.046Z,3.67
2023-05-03T13:54:44.466Z,3.58
2023-05-03T13:57:11.425Z,3.83
2023-05-03T13:59:38.394Z,3.65
2023-05-03T14:02:05.348Z,3.30
2023-05-03T14:04:32.329Z,3.10
2023-05-03T14:07:02.756Z,4.07
2023-05-03T14:09:30.462Z,3.40
2023-05-03T14:11:57.882Z,3.25
2023-05-03T14:14:27.275Z,3.25
2023-05-03T14:16:54.251Z,3.40
2023-05-03T14:19:21.730Z,3.80
2023-05-03T14:21:51.318Z,3.28
2023-05-03T14:24:18.820Z,4.20
2023-05-03T14:26:46.386Z,3.38
2023-05-03T14:29:13.338Z,3.65
2023-05-03T14:31:40.577Z,3.40
2023-05-03T14:34:09.890Z,3.30
2023-05-03T14:36:44.235Z,3.50
2023-05-03T14:39:17.600Z,3.00
2023-05-03T14:41:48.631Z,3.03
2023-05-03T14:44:15.690Z,2.53
2023-05-03T14:46:42.594Z,2.72
2023-05-03T14:49:09.528Z,3.20
2023-05-03T14:51:37.137Z,2.65
2023-05-03T14:54:04.123Z,2.92
2023-05-03T14:56:32.366Z,3.15
2023-05-03T14:58:59.518Z,3.15
2023-05-03T15:01:26.959Z,3.38
2023-05-03T15:03:54.016Z,2.75
2023-05-03T15:06:25.884Z,2.58
2023-05-03T15:08:53.044Z,2.83
2023-05-03T15:11:19.894Z,3.38
2023-05-03T15:13:47.862Z,2.95
2023-05-03T15:16:14.840Z,3.20
2023-05-03T15:18:44.003Z,3.22
2023-05-03T15:21:12.778Z,3.20
2023-05-03T15:23:39.692Z,3.00
2023-05-03T15:26:06.541Z,4.18
2023-05-03T15:28:33.769Z,3.47
2023-05-03T15:31:01.800Z,3.85
2023-05-03T15:33:28.696Z,4.78
2023-05-03T15:35:55.859Z,3.60
2023-05-03T15:38:22.799Z,3.38
2023-05-03T15:40:49.816Z,3.65
2023-05-03T15:43:17.836Z,3.08
2023-05-03T15:45:45.141Z,3.47
2023-05-03T15:48:12.049Z,3.58
2023-05-03T15:50:38.944Z,2.97
2023-05-03T15:53:06.219Z,3.92
2023-05-03T15:55:33.414Z,3.33
2023-05-03T15:58:00.295Z,3.20
2023-05-03T16:00:27.787Z,3.50
2023-05-03T16:02:54.651Z,4.07
2023-05-03T16:05:23.216Z,3.72
2023-05-03T16:07:50.910Z,3.35
2023-05-03T16:10:25.686Z,3.92
2023-05-03T16:13:02.453Z,3.38
2023-05-03T16:15:39.622Z,3.85
2023-05-03T16:18:10.119Z,4.18
2023-05-03T16:20:37.857Z,3.42
2023-05-03T16:23:05.041Z,3.58
2023-05-03T16:25:31.965Z,3.70
2023-05-03T16:27:58.870Z,3.83
2023-05-03T16:30:26.113Z,3.78
2023-05-03T16:32:53.647Z,3.30
2023-05-03T16:35:20.596Z,3.40
2023-05-03T16:37:47.512Z,3.10
2023-05-03T16:40:14.489Z,2.80
2023-05-03T16:42:42.542Z,3.03
2023-05-03T16:45:10.900Z,3.00
2023-05-03T16:47:38.286Z,3.75
2023-05-03T16:50:08.876Z,3.05
2023-05-03T16:52:42.977Z,2.90
2023-05-03T16:55:10.916Z,3.13
2023-05-03T16:57:38.616Z,2.35
2023-05-03T17:00:11.133Z,2.83
2023-05-03T17:02:39.790Z,2.25
2023-05-03T17:05:08.239Z,2.33
2023-05-03T17:07:35.734Z,2.42
2023-05-03T17:10:03.744Z,2.33
2023-05-03T17:12:31.157Z,2.25
2023-05-03T17:14:58.619Z,2.80
2023-05-03T17:17:25.581Z,2.80
2023-05-03T17:19:52.630Z,2.15
2023-05-03T17:22:19.552Z,2.38
2023-05-03T17:24:46.465Z,1.98
2023-05-03T17:27:13.390Z,2.50
2023-05-03T17:29:40.431Z,2.17
2023-05-03T17:32:07.351Z,2.53
2023-05-03T17:34:34.207Z,2.55
2023-05-03T17:37:01.054Z,2.67
2023-05-03T17:39:28.511Z,2.42
2023-05-03T17:41:55.451Z,2.95
2023-05-03T17:44:22.970Z,2.33
2023-05-03T17:46:50.354Z,2.40
2023-05-03T17:49:17.322Z,2.13
2023-05-03T17:51:44.210Z,2.17
2023-05-03T17:54:11.096Z,2.60
2023-05-03T17:56:37.957Z,2.70
2023-05-03T17:59:05.261Z,2.65
2023-05-03T18:01:32.109Z,2.20
2023-05-03T18:03:59.143Z,3.40
2023-05-03T18:06:28.039Z,2.55
2023-05-03T18:08:54.857Z,2.53
2023-05-03T18:11:22.926Z,2.20
2023-05-03T18:13:50.177Z,2.38
2023-05-03T18:16:18.966Z,2.30
2023-05-03T18:18:45.826Z,2.75
2023-05-03T18:21:13.357Z,2.42
2023-05-03T18:23:41.442Z,2.25
2023-05-03T18:26:10.023Z,2.22
2023-05-03T18:28:37.770Z,2.35
2023-05-03T18:31:04.692Z,2.47
2023-05-03T18:33:32.801Z,2.40
2023-05-03T18:35:59.679Z,2.40
2023-05-03T18:38:26.988Z,2.35
2023-05-03T18:40:58.708Z,2.40
2023-05-03T18:43:25.733Z,1.98
2023-05-03T18:45:52.651Z,2.20
2023-05-03T18:48:19.566Z,2.58
2023-05-03T18:50:46.620Z,2.53
2023-05-03T18:53:14.668Z,2.13
2023-05-03T18:55:42.495Z,2.47
2023-05-03T18:58:09.457Z,2.30
2023-05-03T19:00:36.472Z,3.20
2023-05-03T19:03:04.212Z,2.33
2023-05-03T19:05:31.218Z,2.40
2023-05-03T19:08:09.005Z,2.42
2023-05-03T19:10:45.194Z,2.50
2023-05-03T19:13:14.610Z,2.00
2023-05-03T19:15:44.402Z,2.17
2023-05-03T19:18:26.177Z,2.13
2023-05-03T19:20:58.670Z,2.10
2023-05-03T19:23:27.824Z,2.22
2023-05-03T19:25:57.029Z,2.78
2023-05-03T19:28:28.767Z,2.35
2023-05-03T19:30:56.219Z,2.50
2023-05-03T19:33:23.255Z,2.25
2023-05-03T19:35:50.240Z,2.80
2023-05-03T19:38:18.541Z,2.88
2023-05-03T19:40:58.358Z,3.03
2023-05-03T19:43:25.463Z,2.33
2023-05-03T19:45:53.155Z,3.17
2023-05-03T19:48:22.555Z,2.80
2023-05-03T19:50:51.720Z,3.10
2023-05-03T19:53:29.263Z,3.17
2023-05-03T19:56:01.112Z,2.70
2023-05-03T19:58:29.040Z,2.72
2023-05-03T20:00:58.000Z,3.03
2023-05-03T20:03:26.364Z,3.00
2023-05-03T20:05:53.856Z,2.83
2023-05-03T20:08:22.257Z,2.53
2023-05-03T20:10:50.841Z,2.47
2023-05-03T20:13:19.203Z,2.90
2023-05-03T20:15:48.308Z,2.88
2023-05-03T20:18:16.625Z,3.25
2023-05-03T20:20:43.570Z,3.20
2023-05-03T20:23:11.986Z,3.00
2023-05-03T20:25:40.214Z,3.13
2023-05-03T20:28:09.354Z,3.17
2023-05-03T20:30:37.871Z,3.00
2023-05-03T20:33:04.975Z,3.60
2023-05-03T20:35:33.073Z,2.67
2023-05-03T20:38:00.245Z,3.45
2023-05-03T20:40:27.151Z,3.42
2023-05-03T20:42:53.995Z,3.15
2023-05-03T20:45:20.973Z,3.17
2023-05-03T20:47:47.887Z,3.75
2023-05-03T20:50:14.935Z,3.70
2023-05-03T20:52:41.812Z,3.30
2023-05-03T20:55:09.770Z,3.60
2023-05-03T20:57:42.924Z,3.60
2023-05-03T21:00:15.913Z,4.25
2023-05-03T21:02:43.346Z,4.28
2023-05-03T21:05:10.729Z,3.42
2023-05-03T21:07:38.434Z,3.85
2023-05-03T21:10:07.037Z,4.43
2023-05-03T21:12:34.818Z,3.92
2023-05-03T21:15:01.763Z,4.15
2023-05-03T21:17:28.691Z,3.38
2023-05-03T21:19:55.825Z,4.20
2023-05-03T21:22:22.775Z,3.67
2023-05-03T21:24:50.155Z,3.80
2023-05-03T21:27:19.185Z,3.88
2023-05-03T21:29:46.354Z,4.03
2023-05-03T21:32:13.346Z,3.80
2023-05-03T21:34:40.248Z,3.97
2023-05-03T21:37:07.314Z,3.65
2023-05-03T21:39:34.184Z,3.70
2023-05-03T21:42:01.050Z,3.90
2023-05-03T21:44:28.020Z,3.90
2023-05-03T21:46:55.008Z,4.30
2023-05-03T21:49:22.265Z,3.90
2023-05-03T21:51:49.191Z,4.65
2023-05-03T21:54:17.174Z,3.90
2023-05-03T21:56:44.077Z,3.92
2023-05-03T21:59:10.969Z,4.07
2023-05-03T22:01:38.072Z,4.18
2023-05-03T22:04:05.670Z,4.25
2023-05-03T22:06:32.772Z,3.97
2023-05-03T22:08:59.812Z,3.92
2023-05-03T22:11:26.705Z,4.82
2023-05-03T22:14:06.880Z,4.13
2023-05-03T22:16:35.357Z,4.40
2023-05-03T22:19:02.260Z,4.05
2023-05-03T22:21:29.315Z,4.03
2023-05-03T22:23:56.207Z,4.07
2023-05-03T22:26:24.294Z,3.85
2023-05-03T22:28:51.205Z,3.65
2023-05-03T22:31:18.246Z,4.07
2023-05-03T22:33:45.513Z,3.72
2023-05-03T22:36:12.955Z,4.10
2023-05-03T22:38:42.561Z,3.70
2023-05-03T22:41:09.837Z,3.80
2023-05-03T22:43:37.072Z,3.60
2023-05-03T22:46:04.181Z,3.55
2023-05-03T22:48:32.592Z,3.70
2023-05-03T22:50:59.886Z,4.07
2023-05-03T22:53:26.814Z,4.03
2023-05-03T22:56:06.608Z,4.13
2023-05-03T22:58:34.439Z,4.03
2023-05-03T23:01:01.468Z,4.60
2023-05-03T23:03:28.393Z,4.65
2023-05-03T23:05:55.542Z,4.18
2023-05-03T23:08:22.473Z,4.53
2023-05-03T23:10:49.349Z,4.43
2023-05-03T23:13:16.922Z,4.70
2023-05-03T23:15:44.053Z,4.57
2023-05-03T23:18:10.924Z,4.10
2023-05-03T23:20:37.859Z,4.47
2023-05-03T23:23:04.745Z,4.78
2023-05-03T23:25:31.612Z,4.80
2023-05-03T23:27:58.607Z,5.10
2023-05-03T23:30:25.989Z,4.65
2023-05-03T23:32:53.483Z,5.25
2023-05-03T23:35:21.043Z,5.07
2023-05-03T23:37:47.967Z,5.10
2023-05-03T23:40:14.896Z,5.22
2023-05-03T23:42:41.763Z,5.38
2023-05-03T23:45:09.808Z,5.40
2023-05-03T23:47:36.941Z,5.70
2023-05-03T23:50:04.731Z,5.57
2023-05-03T23:52:31.924Z,5.13
2023-05-03T23:54:58.817Z,4.97
2023-05-03T23:57:26.157Z,5.47
2023-05-03T23:59:53.111Z,5.35
